sensor_id;sensor_type;location;lat;lon;timestamp;temperature;humidity
53653;DHT22;39553;52.954;5.932;2022-08-19T00:01:52;15.70;99.90
53653;DHT22;39553;52.954;5.932;2022-08-19T00:04:23;15.70;99.90
53653;DHT22;39553;52.954;5.932;2022-08-19T00:06:50;15.70;99.90
53653;DHT22;39553;52.954;5.932;2022-08-19T00:09:17;15.60;99.90
53653;DHT22;39553;52.954;5.932;2022-08-19T00:11:44;15.60;99.90
53653;DHT22;39553;52.954;5.932;2022-08-19T00:14:13;15.60;99.90
53653;DHT22;39553;52.954;5.932;2022-08-19T00:16:42;15.60;99.90
53653;DHT22;39553;52.954;5.932;2022-08-19T00:19:09;15.50;99.90
53653;DHT22;39553;52.954;5.932;2022-08-19T00:21:35;15.50;99.90
53653;DHT22;39553;52.954;5.932;2022-08-19T00:24:09;15.40;99.90
53653;DHT22;39553;52.954;5.932;2022-08-19T00:26:36;15.40;99.90
53653;DHT22;39553;52.954;5.932;2022-08-19T00:29:04;15.40;99.90
53653;DHT22;39553;52.954;5.932;2022-08-19T00:31:30;15.40;99.90
53653;DHT22;39553;52.954;5.932;2022-08-19T00:33:56;15.40;99.90
53653;DHT22;39553;52.954;5.932;2022-08-19T00:36:22;15.40;99.90
53653;DHT22;39553;52.954;5.932;2022-08-19T00:38:48;15.40;99.90
53653;DHT22;39553;52.954;5.932;2022-08-19T00:41:19;15.30;99.90
53653;DHT22;39553;52.954;5.932;2022-08-19T00:44:09;15.30;99.90
53653;DHT22;39553;52.954;5.932;2022-08-19T00:46:37;15.20;99.90
53653;DHT22;39553;52.954;5.932;2022-08-19T00:51:59;15.20;99.90
53653;DHT22;39553;52.954;5.932;2022-08-19T00:54:25;15.10;99.90
53653;DHT22;39553;52.954;5.932;2022-08-19T00:56:52;15.00;99.90
53653;DHT22;39553;52.954;5.932;2022-08-19T00:59:18;15.10;99.90
53653;DHT22;39553;52.954;5.932;2022-08-19T01:01:45;15.10;99.90
53653;DHT22;39553;52.954;5.932;2022-08-19T01:04:12;15.10;99.90
53653;DHT22;39553;52.954;5.932;2022-08-19T01:06:39;15.10;99.90
53653;DHT22;39553;52.954;5.932;2022-08-19T01:09:07;15.10;99.90
53653;DHT22;39553;52.954;5.932;2022-08-19T01:11:36;15.10;99.90
53653;DHT22;39553;52.954;5.932;2022-08-19T01:14:04;15.00;99.90
53653;DHT22;39553;52.954;5.932;2022-08-19T01:16:30;15.00;99.90
53653;DHT22;39553;52.954;5.932;2022-08-19T01:18:56;15.00;99.90
53653;DHT22;39553;52.954;5.932;2022-08-19T01:23:55;15.00;99.90
53653;DHT22;39553;52.954;5.932;2022-08-19T01:26:23;15.00;99.90
53653;DHT22;39553;52.954;5.932;2022-08-19T01:28:51;14.90;99.90
53653;DHT22;39553;52.954;5.932;2022-08-19T01:31:21;15.00;99.90
53653;DHT22;39553;52.954;5.932;2022-08-19T01:33:48;15.00;99.90
53653;DHT22;39553;52.954;5.932;2022-08-19T01:36:24;15.00;99.90
53653;DHT22;39553;52.954;5.932;2022-08-19T01:38:51;15.00;99.90
53653;DHT22;39553;52.954;5.932;2022-08-19T01:41:18;14.90;99.90
53653;DHT22;39553;52.954;5.932;2022-08-19T01:43:44;14.90;99.90
53653;DHT22;39553;52.954;5.932;2022-08-19T01:46:11;14.90;99.90
53653;DHT22;39553;52.954;5.932;2022-08-19T01:48:40;15.00;99.90
53653;DHT22;39553;52.954;5.932;2022-08-19T01:51:07;14.90;99.90
53653;DHT22;39553;52.954;5.932;2022-08-19T01:53:33;14.90;99.90
53653;DHT22;39553;52.954;5.932;2022-08-19T01:55:59;14.90;99.90
53653;DHT22;39553;52.954;5.932;2022-08-19T01:58:30;14.90;99.90
53653;DHT22;39553;52.954;5.932;2022-08-19T02:00:58;14.90;99.90
53653;DHT22;39553;52.954;5.932;2022-08-19T02:03:24;14.90;99.90
53653;DHT22;39553;52.954;5.932;2022-08-19T02:05:55;14.90;99.90
53653;DHT22;39553;52.954;5.932;2022-08-19T02:08:21;14.90;99.90
53653;DHT22;39553;52.954;5.932;2022-08-19T02:10:47;14.90;99.90
53653;DHT22;39553;52.954;5.932;2022-08-19T02:13:13;14.90;99.90
53653;DHT22;39553;52.954;5.932;2022-08-19T02:15:39;14.90;99.90
53653;DHT22;39553;52.954;5.932;2022-08-19T02:18:05;14.90;99.90
53653;DHT22;39553;52.954;5.932;2022-08-19T02:20:34;14.90;99.90
53653;DHT22;39553;52.954;5.932;2022-08-19T02:23:01;14.90;99.90
53653;DHT22;39553;52.954;5.932;2022-08-19T02:25:27;14.90;99.90
53653;DHT22;39553;52.954;5.932;2022-08-19T02:27:53;14.80;99.90
53653;DHT22;39553;52.954;5.932;2022-08-19T02:30:20;14.80;99.90
53653;DHT22;39553;52.954;5.932;2022-08-19T02:32:46;14.80;99.90
53653;DHT22;39553;52.954;5.932;2022-08-19T02:35:13;14.80;99.90
53653;DHT22;39553;52.954;5.932;2022-08-19T02:37:41;14.90;99.90
53653;DHT22;39553;52.954;5.932;2022-08-19T02:40:26;14.80;99.90
53653;DHT22;39553;52.954;5.932;2022-08-19T02:42:52;14.80;99.90
53653;DHT22;39553;52.954;5.932;2022-08-19T02:45:18;14.80;99.90
53653;DHT22;39553;52.954;5.932;2022-08-19T02:47:44;14.80;99.90
53653;DHT22;39553;52.954;5.932;2022-08-19T02:50:11;14.90;99.90
53653;DHT22;39553;52.954;5.932;2022-08-19T02:52:36;14.80;99.90
53653;DHT22;39553;52.954;5.932;2022-08-19T02:55:03;14.90;99.90
53653;DHT22;39553;52.954;5.932;2022-08-19T02:57:30;14.80;99.90
53653;DHT22;39553;52.954;5.932;2022-08-19T02:59:57;14.90;99.90
53653;DHT22;39553;52.954;5.932;2022-08-19T03:02:23;14.80;99.90
53653;DHT22;39553;52.954;5.932;2022-08-19T03:04:49;14.80;99.90
53653;DHT22;39553;52.954;5.932;2022-08-19T03:07:15;14.80;99.90
53653;DHT22;39553;52.954;5.932;2022-08-19T03:09:41;14.80;99.90
53653;DHT22;39553;52.954;5.932;2022-08-19T03:12:08;14.70;99.90
53653;DHT22;39553;52.954;5.932;2022-08-19T03:14:34;14.80;99.90
53653;DHT22;39553;52.954;5.932;2022-08-19T03:17:00;14.70;99.90
53653;DHT22;39553;52.954;5.932;2022-08-19T03:19:26;14.70;99.90
53653;DHT22;39553;52.954;5.932;2022-08-19T03:21:53;14.70;99.90
53653;DHT22;39553;52.954;5.932;2022-08-19T03:24:19;14.70;99.90
53653;DHT22;39553;52.954;5.932;2022-08-19T03:26:49;14.90;99.90
53653;DHT22;39553;52.954;5.932;2022-08-19T03:29:15;14.70;99.90
53653;DHT22;39553;52.954;5.932;2022-08-19T03:31:43;14.80;99.90
53653;DHT22;39553;52.954;5.932;2022-08-19T03:34:11;14.80;99.90
53653;DHT22;39553;52.954;5.932;2022-08-19T03:36:38;14.80;99.90
53653;DHT22;39553;52.954;5.932;2022-08-19T03:39:04;14.80;99.90
53653;DHT22;39553;52.954;5.932;2022-08-19T03:41:33;14.90;99.90
53653;DHT22;39553;52.954;5.932;2022-08-19T03:44:02;14.90;99.90
53653;DHT22;39553;52.954;5.932;2022-08-19T03:46:31;14.90;99.90
53653;DHT22;39553;52.954;5.932;2022-08-19T03:48:59;14.90;99.90
53653;DHT22;39553;52.954;5.932;2022-08-19T03:51:33;14.90;99.90
53653;DHT22;39553;52.954;5.932;2022-08-19T03:54:02;14.90;99.90
53653;DHT22;39553;52.954;5.932;2022-08-19T03:56:29;14.80;99.90
53653;DHT22;39553;52.954;5.932;2022-08-19T03:58:56;14.80;99.90
53653;DHT22;39553;52.954;5.932;2022-08-19T04:01:24;14.80;99.90
53653;DHT22;39553;52.954;5.932;2022-08-19T04:03:52;14.80;99.90
53653;DHT22;39553;52.954;5.932;2022-08-19T04:06:20;14.80;99.90
53653;DHT22;39553;52.954;5.932;2022-08-19T04:08:48;14.80;99.90
53653;DHT22;39553;52.954;5.932;2022-08-19T04:11:18;14.80;99.90
53653;DHT22;39553;52.954;5.932;2022-08-19T04:13:46;14.80;99.90
53653;DHT22;39553;52.954;5.932;2022-08-19T04:16:11;14.80;99.90
53653;DHT22;39553;52.954;5.932;2022-08-19T04:18:38;14.90;99.90
53653;DHT22;39553;52.954;5.932;2022-08-19T04:21:05;14.90;99.90
53653;DHT22;39553;52.954;5.932;2022-08-19T04:23:32;14.80;99.90
53653;DHT22;39553;52.954;5.932;2022-08-19T04:25:58;14.80;99.90
53653;DHT22;39553;52.954;5.932;2022-08-19T04:28:24;14.80;99.90
53653;DHT22;39553;52.954;5.932;2022-08-19T04:30:52;14.90;99.90
53653;DHT22;39553;52.954;5.932;2022-08-19T04:33:20;14.90;99.90
53653;DHT22;39553;52.954;5.932;2022-08-19T04:35:49;14.90;99.90
53653;DHT22;39553;52.954;5.932;2022-08-19T04:38:17;14.90;99.90
53653;DHT22;39553;52.954;5.932;2022-08-19T04:40:48;14.80;99.90
53653;DHT22;39553;52.954;5.932;2022-08-19T04:43:34;14.90;99.90
53653;DHT22;39553;52.954;5.932;2022-08-19T04:46:09;14.90;99.90
53653;DHT22;39553;52.954;5.932;2022-08-19T04:48:36;14.90;99.90
53653;DHT22;39553;52.954;5.932;2022-08-19T04:51:07;14.90;99.90
53653;DHT22;39553;52.954;5.932;2022-08-19T04:53:35;14.90;99.90
53653;DHT22;39553;52.954;5.932;2022-08-19T04:56:14;14.90;99.90
53653;DHT22;39553;52.954;5.932;2022-08-19T04:58:42;14.90;99.90
53653;DHT22;39553;52.954;5.932;2022-08-19T05:01:12;14.90;99.90
53653;DHT22;39553;52.954;5.932;2022-08-19T05:03:38;14.90;99.90
53653;DHT22;39553;52.954;5.932;2022-08-19T05:06:11;15.10;99.90
53653;DHT22;39553;52.954;5.932;2022-08-19T05:08:38;15.00;99.90
53653;DHT22;39553;52.954;5.932;2022-08-19T05:11:18;15.00;99.90
53653;DHT22;39553;52.954;5.932;2022-08-19T05:13:46;15.10;99.90
53653;DHT22;39553;52.954;5.932;2022-08-19T05:16:13;15.10;99.90
53653;DHT22;39553;52.954;5.932;2022-08-19T05:18:41;15.20;99.90
53653;DHT22;39553;52.954;5.932;2022-08-19T05:21:26;15.20;99.90
53653;DHT22;39553;52.954;5.932;2022-08-19T05:24:11;15.20;99.90
53653;DHT22;39553;52.954;5.932;2022-08-19T05:26:42;15.30;99.90
53653;DHT22;39553;52.954;5.932;2022-08-19T05:29:09;15.40;99.90
53653;DHT22;39553;52.954;5.932;2022-08-19T05:31:36;15.40;99.90
53653;DHT22;39553;52.954;5.932;2022-08-19T05:34:04;15.40;99.90
53653;DHT22;39553;52.954;5.932;2022-08-19T05:36:35;15.40;99.90
53653;DHT22;39553;52.954;5.932;2022-08-19T05:39:03;15.50;99.90
53653;DHT22;39553;52.954;5.932;2022-08-19T05:41:29;15.70;99.90
53653;DHT22;39553;52.954;5.932;2022-08-19T05:44:02;15.80;99.90
53653;DHT22;39553;52.954;5.932;2022-08-19T05:46:28;15.80;99.90
53653;DHT22;39553;52.954;5.932;2022-08-19T05:48:55;15.90;99.90
53653;DHT22;39553;52.954;5.932;2022-08-19T05:51:22;15.90;99.90
53653;DHT22;39553;52.954;5.932;2022-08-19T05:53:49;16.00;99.90
53653;DHT22;39553;52.954;5.932;2022-08-19T05:56:16;16.10;99.90
53653;DHT22;39553;52.954;5.932;2022-08-19T05:58:44;16.20;99.90
53653;DHT22;39553;52.954;5.932;2022-08-19T06:01:16;16.50;99.90
53653;DHT22;39553;52.954;5.932;2022-08-19T06:03:42;16.70;99.90
53653;DHT22;39553;52.954;5.932;2022-08-19T06:06:09;16.90;99.90
53653;DHT22;39553;52.954;5.932;2022-08-19T06:08:36;17.10;99.90
53653;DHT22;39553;52.954;5.932;2022-08-19T06:11:22;17.40;99.90
53653;DHT22;39553;52.954;5.932;2022-08-19T06:13:51;18.00;99.90
53653;DHT22;39553;52.954;5.932;2022-08-19T06:16:21;18.50;99.90
53653;DHT22;39553;52.954;5.932;2022-08-19T06:18:51;19.00;99.90
53653;DHT22;39553;52.954;5.932;2022-08-19T06:21:20;19.40;99.90
53653;DHT22;39553;52.954;5.932;2022-08-19T06:23:47;19.80;99.90
53653;DHT22;39553;52.954;5.932;2022-08-19T06:26:14;20.20;99.90
53653;DHT22;39553;52.954;5.932;2022-08-19T06:28:40;20.40;99.90
53653;DHT22;39553;52.954;5.932;2022-08-19T06:31:21;20.50;99.90
53653;DHT22;39553;52.954;5.932;2022-08-19T06:33:48;20.40;99.90
53653;DHT22;39553;52.954;5.932;2022-08-19T06:36:21;20.30;99.90
53653;DHT22;39553;52.954;5.932;2022-08-19T06:38:47;19.90;99.90
53653;DHT22;39553;52.954;5.932;2022-08-19T06:41:13;19.50;99.90
53653;DHT22;39553;52.954;5.932;2022-08-19T06:43:39;19.20;99.90
53653;DHT22;39553;52.954;5.932;2022-08-19T06:46:11;18.90;99.90
53653;DHT22;39553;52.954;5.932;2022-08-19T06:48:37;18.80;99.90
53653;DHT22;39553;52.954;5.932;2022-08-19T06:51:03;18.70;99.90
53653;DHT22;39553;52.954;5.932;2022-08-19T06:53:31;18.90;99.90
53653;DHT22;39553;52.954;5.932;2022-08-19T06:55:56;19.30;99.90
53653;DHT22;39553;52.954;5.932;2022-08-19T06:58:29;19.90;99.90
53653;DHT22;39553;52.954;5.932;2022-08-19T07:01:03;20.40;99.90
53653;DHT22;39553;52.954;5.932;2022-08-19T07:03:30;21.00;99.90
53653;DHT22;39553;52.954;5.932;2022-08-19T07:05:58;21.40;99.90
53653;DHT22;39553;52.954;5.932;2022-08-19T07:08:27;21.90;99.90
53653;DHT22;39553;52.954;5.932;2022-08-19T07:10:53;22.20;99.90
53653;DHT22;39553;52.954;5.932;2022-08-19T07:13:20;22.30;99.90
53653;DHT22;39553;52.954;5.932;2022-08-19T07:15:47;22.30;99.90
53653;DHT22;39553;52.954;5.932;2022-08-19T07:18:14;22.50;99.90
53653;DHT22;39553;52.954;5.932;2022-08-19T07:20:40;22.70;99.90
53653;DHT22;39553;52.954;5.932;2022-08-19T07:23:07;23.20;99.90
53653;DHT22;39553;52.954;5.932;2022-08-19T07:25:32;23.60;99.90
53653;DHT22;39553;52.954;5.932;2022-08-19T07:27:58;24.00;99.90
53653;DHT22;39553;52.954;5.932;2022-08-19T07:30:24;24.00;99.90
53653;DHT22;39553;52.954;5.932;2022-08-19T07:32:50;24.20;99.90
53653;DHT22;39553;52.954;5.932;2022-08-19T07:35:17;24.00;99.90
53653;DHT22;39553;52.954;5.932;2022-08-19T07:37:45;23.90;99.90
53653;DHT22;39553;52.954;5.932;2022-08-19T07:40:12;24.20;99.90
53653;DHT22;39553;52.954;5.932;2022-08-19T07:42:37;24.40;99.90
53653;DHT22;39553;52.954;5.932;2022-08-19T07:45:04;24.60;99.90
53653;DHT22;39553;52.954;5.932;2022-08-19T07:47:30;24.60;99.90
53653;DHT22;39553;52.954;5.932;2022-08-19T07:49:56;24.50;99.90
53653;DHT22;39553;52.954;5.932;2022-08-19T07:52:22;24.60;99.90
53653;DHT22;39553;52.954;5.932;2022-08-19T07:54:48;24.30;99.90
53653;DHT22;39553;52.954;5.932;2022-08-19T07:57:16;24.40;99.90
53653;DHT22;39553;52.954;5.932;2022-08-19T07:59:42;24.40;99.90
53653;DHT22;39553;52.954;5.932;2022-08-19T08:02:08;24.20;99.90
53653;DHT22;39553;52.954;5.932;2022-08-19T08:04:34;24.00;99.90
53653;DHT22;39553;52.954;5.932;2022-08-19T08:07:19;24.00;99.90
53653;DHT22;39553;52.954;5.932;2022-08-19T08:10:06;24.00;99.90
53653;DHT22;39553;52.954;5.932;2022-08-19T08:12:40;24.20;99.90
53653;DHT22;39553;52.954;5.932;2022-08-19T08:15:13;24.20;99.90
53653;DHT22;39553;52.954;5.932;2022-08-19T08:17:44;24.20;99.90
53653;DHT22;39553;52.954;5.932;2022-08-19T08:20:10;24.10;99.90
53653;DHT22;39553;52.954;5.932;2022-08-19T08:22:36;24.00;99.90
53653;DHT22;39553;52.954;5.932;2022-08-19T08:25:22;24.10;99.90
53653;DHT22;39553;52.954;5.932;2022-08-19T08:27:49;24.20;99.90
53653;DHT22;39553;52.954;5.932;2022-08-19T08:30:18;24.20;99.90
53653;DHT22;39553;52.954;5.932;2022-08-19T08:32:44;24.00;99.90
53653;DHT22;39553;52.954;5.932;2022-08-19T08:35:13;23.60;99.90
53653;DHT22;39553;52.954;5.932;2022-08-19T08:37:39;23.40;99.90
53653;DHT22;39553;52.954;5.932;2022-08-19T08:40:18;23.50;99.90
53653;DHT22;39553;52.954;5.932;2022-08-19T08:45:27;23.50;99.90
53653;DHT22;39553;52.954;5.932;2022-08-19T08:47:57;23.60;99.90
53653;DHT22;39553;52.954;5.932;2022-08-19T08:50:27;23.50;99.90
53653;DHT22;39553;52.954;5.932;2022-08-19T08:52:57;23.50;99.90
53653;DHT22;39553;52.954;5.932;2022-08-19T08:55:26;24.00;99.90
53653;DHT22;39553;52.954;5.932;2022-08-19T09:00:24;25.80;99.90
53653;DHT22;39553;52.954;5.932;2022-08-19T09:02:50;26.10;99.90
53653;DHT22;39553;52.954;5.932;2022-08-19T09:05:17;26.10;99.90
53653;DHT22;39553;52.954;5.932;2022-08-19T09:15:25;25.40;99.90
53653;DHT22;39553;52.954;5.932;2022-08-19T09:17:53;26.00;99.90
53653;DHT22;39553;52.954;5.932;2022-08-19T09:20:22;26.80;99.90
53653;DHT22;39553;52.954;5.932;2022-08-19T09:22:48;27.20;99.90
53653;DHT22;39553;52.954;5.932;2022-08-19T09:25:19;27.00;99.90
53653;DHT22;39553;52.954;5.932;2022-08-19T09:27:50;27.00;99.90
53653;DHT22;39553;52.954;5.932;2022-08-19T09:30:26;27.00;99.90
53653;DHT22;39553;52.954;5.932;2022-08-19T09:32:53;26.20;99.90
53653;DHT22;39553;52.954;5.932;2022-08-19T09:35:24;25.90;99.90
53653;DHT22;39553;52.954;5.932;2022-08-19T09:37:51;25.90;99.90
53653;DHT22;39553;52.954;5.932;2022-08-19T09:40:18;26.20;99.90
53653;DHT22;39553;52.954;5.932;2022-08-19T09:42:44;26.30;99.90
53653;DHT22;39553;52.954;5.932;2022-08-19T09:45:16;26.70;99.90
53653;DHT22;39553;52.954;5.932;2022-08-19T09:47:43;26.90;99.90
53653;DHT22;39553;52.954;5.932;2022-08-19T09:50:10;26.90;99.90
53653;DHT22;39553;52.954;5.932;2022-08-19T09:52:37;26.80;99.90
53653;DHT22;39553;52.954;5.932;2022-08-19T09:55:04;26.60;99.90
53653;DHT22;39553;52.954;5.932;2022-08-19T09:57:30;26.60;99.90
53653;DHT22;39553;52.954;5.932;2022-08-19T09:59:56;26.70;99.90
53653;DHT22;39553;52.954;5.932;2022-08-19T10:02:21;26.70;99.90
53653;DHT22;39553;52.954;5.932;2022-08-19T10:04:47;26.80;99.90
53653;DHT22;39553;52.954;5.932;2022-08-19T10:07:32;27.00;99.90
53653;DHT22;39553;52.954;5.932;2022-08-19T10:09:57;27.10;99.90
53653;DHT22;39553;52.954;5.932;2022-08-19T10:12:23;27.40;99.90
53653;DHT22;39553;52.954;5.932;2022-08-19T10:14:49;27.50;99.90
53653;DHT22;39553;52.954;5.932;2022-08-19T10:17:16;27.60;99.90
53653;DHT22;39553;52.954;5.932;2022-08-19T10:19:43;28.00;99.90
53653;DHT22;39553;52.954;5.932;2022-08-19T10:22:08;28.00;99.90
53653;DHT22;39553;52.954;5.932;2022-08-19T10:24:40;28.00;99.90
53653;DHT22;39553;52.954;5.932;2022-08-19T10:27:06;27.20;99.90
53653;DHT22;39553;52.954;5.932;2022-08-19T10:29:32;27.20;99.90
53653;DHT22;39553;52.954;5.932;2022-08-19T10:32:05;27.30;99.90
53653;DHT22;39553;52.954;5.932;2022-08-19T10:34:32;27.20;99.90
53653;DHT22;39553;52.954;5.932;2022-08-19T10:36:59;27.30;99.90
53653;DHT22;39553;52.954;5.932;2022-08-19T10:39:26;27.40;99.90
53653;DHT22;39553;52.954;5.932;2022-08-19T10:41:55;27.20;99.90
53653;DHT22;39553;52.954;5.932;2022-08-19T10:44:22;27.00;99.90
53653;DHT22;39553;52.954;5.932;2022-08-19T10:46:49;27.10;99.90
53653;DHT22;39553;52.954;5.932;2022-08-19T10:49:15;27.30;99.90
53653;DHT22;39553;52.954;5.932;2022-08-19T10:51:42;27.50;99.90
53653;DHT22;39553;52.954;5.932;2022-08-19T10:54:27;27.30;99.90
53653;DHT22;39553;52.954;5.932;2022-08-19T10:57:14;27.30;99.90
53653;DHT22;39553;52.954;5.932;2022-08-19T10:59:39;27.40;99.90
53653;DHT22;39553;52.954;5.932;2022-08-19T11:02:08;27.50;99.90
53653;DHT22;39553;52.954;5.932;2022-08-19T11:04:36;27.80;99.90
53653;DHT22;39553;52.954;5.932;2022-08-19T11:07:03;27.60;99.90
53653;DHT22;39553;52.954;5.932;2022-08-19T11:09:30;27.30;99.90
53653;DHT22;39553;52.954;5.932;2022-08-19T11:11:56;27.00;99.90
53653;DHT22;39553;52.954;5.932;2022-08-19T11:14:23;26.70;99.90
53653;DHT22;39553;52.954;5.932;2022-08-19T11:16:51;26.40;99.90
53653;DHT22;39553;52.954;5.932;2022-08-19T11:19:21;26.00;99.90
53653;DHT22;39553;52.954;5.932;2022-08-19T11:21:50;25.80;99.90
53653;DHT22;39553;52.954;5.932;2022-08-19T11:24:24;25.70;99.90
53653;DHT22;39553;52.954;5.932;2022-08-19T11:26:52;25.70;99.90
53653;DHT22;39553;52.954;5.932;2022-08-19T11:29:21;26.20;99.90
53653;DHT22;39553;52.954;5.932;2022-08-19T11:31:48;26.50;99.90
53653;DHT22;39553;52.954;5.932;2022-08-19T11:34:17;26.60;99.90
53653;DHT22;39553;52.954;5.932;2022-08-19T11:36:44;26.40;99.90
53653;DHT22;39553;52.954;5.932;2022-08-19T11:39:13;26.30;99.90
53653;DHT22;39553;52.954;5.932;2022-08-19T11:41:40;26.00;99.90
53653;DHT22;39553;52.954;5.932;2022-08-19T11:44:06;25.80;99.90
53653;DHT22;39553;52.954;5.932;2022-08-19T11:46:34;25.80;99.90
53653;DHT22;39553;52.954;5.932;2022-08-19T11:49:04;25.60;99.90
53653;DHT22;39553;52.954;5.932;2022-08-19T11:51:31;25.50;99.90
53653;DHT22;39553;52.954;5.932;2022-08-19T11:53:58;25.40;99.90
53653;DHT22;39553;52.954;5.932;2022-08-19T11:56:24;25.60;99.90
53653;DHT22;39553;52.954;5.932;2022-08-19T11:58:51;25.60;99.90
53653;DHT22;39553;52.954;5.932;2022-08-19T12:01:19;25.60;99.90
53653;DHT22;39553;52.954;5.932;2022-08-19T12:03:51;25.40;99.90
53653;DHT22;39553;52.954;5.932;2022-08-19T12:06:24;25.20;99.90
53653;DHT22;39553;52.954;5.932;2022-08-19T12:08:56;25.20;99.90
53653;DHT22;39553;52.954;5.932;2022-08-19T12:11:23;25.30;99.90
53653;DHT22;39553;52.954;5.932;2022-08-19T12:13:49;25.30;99.90
53653;DHT22;39553;52.954;5.932;2022-08-19T12:16:18;25.30;99.90
53653;DHT22;39553;52.954;5.932;2022-08-19T12:18:45;25.10;99.90
53653;DHT22;39553;52.954;5.932;2022-08-19T12:21:22;25.00;99.90
53653;DHT22;39553;52.954;5.932;2022-08-19T12:23:49;25.10;99.90
53653;DHT22;39553;52.954;5.932;2022-08-19T12:26:16;25.10;99.90
53653;DHT22;39553;52.954;5.932;2022-08-19T12:28:42;25.10;99.90
53653;DHT22;39553;52.954;5.932;2022-08-19T12:31:09;25.10;99.90
53653;DHT22;39553;52.954;5.932;2022-08-19T12:33:38;25.10;99.90
53653;DHT22;39553;52.954;5.932;2022-08-19T12:36:06;25.10;99.90
53653;DHT22;39553;52.954;5.932;2022-08-19T12:38:32;25.10;99.90
53653;DHT22;39553;52.954;5.932;2022-08-19T12:41:00;25.10;99.90
53653;DHT22;39553;52.954;5.932;2022-08-19T12:43:26;25.30;99.90
53653;DHT22;39553;52.954;5.932;2022-08-19T12:45:52;25.30;99.90
53653;DHT22;39553;52.954;5.932;2022-08-19T12:48:18;25.30;99.90
53653;DHT22;39553;52.954;5.932;2022-08-19T12:50:45;25.30;99.90
53653;DHT22;39553;52.954;5.932;2022-08-19T12:53:11;25.30;99.90
53653;DHT22;39553;52.954;5.932;2022-08-19T12:55:38;25.30;99.90
53653;DHT22;39553;52.954;5.932;2022-08-19T12:58:03;25.10;99.90
53653;DHT22;39553;52.954;5.932;2022-08-19T13:00:29;24.90;99.90
53653;DHT22;39553;52.954;5.932;2022-08-19T13:02:58;24.70;99.90
53653;DHT22;39553;52.954;5.932;2022-08-19T13:05:28;24.50;99.90
53653;DHT22;39553;52.954;5.932;2022-08-19T13:07:56;24.30;99.90
53653;DHT22;39553;52.954;5.932;2022-08-19T13:10:25;24.30;99.90
53653;DHT22;39553;52.954;5.932;2022-08-19T13:12:53;24.30;99.90
53653;DHT22;39553;52.954;5.932;2022-08-19T13:15:21;24.30;99.90
53653;DHT22;39553;52.954;5.932;2022-08-19T13:17:48;24.30;99.90
53653;DHT22;39553;52.954;5.932;2022-08-19T13:20:16;24.20;99.90
53653;DHT22;39553;52.954;5.932;2022-08-19T13:22:42;23.90;99.90
53653;DHT22;39553;52.954;5.932;2022-08-19T13:25:10;23.60;99.90
53653;DHT22;39553;52.954;5.932;2022-08-19T13:27:36;23.40;99.90
53653;DHT22;39553;52.954;5.932;2022-08-19T13:30:03;23.40;99.90
53653;DHT22;39553;52.954;5.932;2022-08-19T13:32:48;23.40;99.90
53653;DHT22;39553;52.954;5.932;2022-08-19T13:35:32;23.40;99.90
53653;DHT22;39553;52.954;5.932;2022-08-19T13:37:58;23.50;99.90
53653;DHT22;39553;52.954;5.932;2022-08-19T13:40:24;23.60;99.90
53653;DHT22;39553;52.954;5.932;2022-08-19T13:42:53;23.70;99.90
53653;DHT22;39553;52.954;5.932;2022-08-19T13:45:23;23.70;99.90
53653;DHT22;39553;52.954;5.932;2022-08-19T13:47:52;23.60;99.90
53653;DHT22;39553;52.954;5.932;2022-08-19T13:50:24;23.60;99.90
53653;DHT22;39553;52.954;5.932;2022-08-19T13:52:51;23.60;99.90
53653;DHT22;39553;52.954;5.932;2022-08-19T13:55:17;23.70;99.90
53653;DHT22;39553;52.954;5.932;2022-08-19T13:57:43;23.80;99.90
53653;DHT22;39553;52.954;5.932;2022-08-19T14:00:13;23.90;99.90
53653;DHT22;39553;52.954;5.932;2022-08-19T14:02:40;23.90;99.90
53653;DHT22;39553;52.954;5.932;2022-08-19T14:05:09;23.80;99.90
53653;DHT22;39553;52.954;5.932;2022-08-19T14:07:36;23.70;99.90
53653;DHT22;39553;52.954;5.932;2022-08-19T14:10:04;23.60;99.90
53653;DHT22;39553;52.954;5.932;2022-08-19T14:12:31;23.60;99.90
53653;DHT22;39553;52.954;5.932;2022-08-19T14:14:58;23.70;99.90
53653;DHT22;39553;52.954;5.932;2022-08-19T14:17:23;23.70;99.90
53653;DHT22;39553;52.954;5.932;2022-08-19T14:19:59;23.70;99.90
53653;DHT22;39553;52.954;5.932;2022-08-19T14:22:33;23.70;99.90
53653;DHT22;39553;52.954;5.932;2022-08-19T14:24:59;23.60;99.90
53653;DHT22;39553;52.954;5.932;2022-08-19T14:27:25;23.60;99.90
53653;DHT22;39553;52.954;5.932;2022-08-19T14:29:54;23.50;99.90
53653;DHT22;39553;52.954;5.932;2022-08-19T14:32:20;23.40;99.90
53653;DHT22;39553;52.954;5.932;2022-08-19T14:34:47;23.20;99.90
53653;DHT22;39553;52.954;5.932;2022-08-19T14:37:14;23.10;99.90
53653;DHT22;39553;52.954;5.932;2022-08-19T14:39:43;23.00;99.90
53653;DHT22;39553;52.954;5.932;2022-08-19T14:42:12;22.90;99.90
53653;DHT22;39553;52.954;5.932;2022-08-19T14:44:40;22.70;99.90
53653;DHT22;39553;52.954;5.932;2022-08-19T14:47:06;22.70;99.90
53653;DHT22;39553;52.954;5.932;2022-08-19T14:49:33;22.70;99.90
53653;DHT22;39553;52.954;5.932;2022-08-19T14:51:59;22.70;99.90
53653;DHT22;39553;52.954;5.932;2022-08-19T14:54:24;22.70;99.90
53653;DHT22;39553;52.954;5.932;2022-08-19T14:56:50;22.70;99.90
53653;DHT22;39553;52.954;5.932;2022-08-19T14:59:16;22.70;99.90
53653;DHT22;39553;52.954;5.932;2022-08-19T15:01:42;22.70;99.90
53653;DHT22;39553;52.954;5.932;2022-08-19T15:04:08;22.70;99.90
53653;DHT22;39553;52.954;5.932;2022-08-19T15:06:34;22.70;99.90
53653;DHT22;39553;52.954;5.932;2022-08-19T15:09:00;22.60;99.90
53653;DHT22;39553;52.954;5.932;2022-08-19T15:11:27;22.70;99.90
53653;DHT22;39553;52.954;5.932;2022-08-19T15:13:55;22.60;99.90
53653;DHT22;39553;52.954;5.932;2022-08-19T15:16:23;22.50;99.90
53653;DHT22;39553;52.954;5.932;2022-08-19T15:18:52;22.40;99.90
53653;DHT22;39553;52.954;5.932;2022-08-19T15:21:18;22.40;99.90
53653;DHT22;39553;52.954;5.932;2022-08-19T15:23:45;22.30;99.90
53653;DHT22;39553;52.954;5.932;2022-08-19T15:26:12;22.20;99.90
53653;DHT22;39553;52.954;5.932;2022-08-19T15:28:38;22.20;99.90
53653;DHT22;39553;52.954;5.932;2022-08-19T15:31:04;22.20;99.90
53653;DHT22;39553;52.954;5.932;2022-08-19T15:33:34;22.20;99.90
53653;DHT22;39553;52.954;5.932;2022-08-19T15:36:06;22.30;99.90
53653;DHT22;39553;52.954;5.932;2022-08-19T15:38:33;22.40;99.90
53653;DHT22;39553;52.954;5.932;2022-08-19T15:41:00;22.50;99.90
53653;DHT22;39553;52.954;5.932;2022-08-19T15:43:45;22.60;99.90
53653;DHT22;39553;52.954;5.932;2022-08-19T15:46:11;22.80;99.90
53653;DHT22;39553;52.954;5.932;2022-08-19T15:48:37;22.80;99.90
53653;DHT22;39553;52.954;5.932;2022-08-19T15:51:03;22.80;99.90
53653;DHT22;39553;52.954;5.932;2022-08-19T15:53:28;22.80;99.90
53653;DHT22;39553;52.954;5.932;2022-08-19T15:55:54;22.80;99.90